Terminal Aerodrome Forecast
Issued by NWS

Home | Current Version | Previous Version | Text Only | Print | Product List | Glossary On
Versions: 1 2 3 4 5 6 7 8 9 10 11 12 13
000
FTUS44 KLZK 291730
TAFHOT
TAF
KHOT 291730Z 2918/3018 26008KT P6SM SCT060
     FM300000 36005KT P6SM SCT250
     FM301200 03005KT P6SM SCT250=

USA.gov is the U.S. government's official web portal to all federal, state and local government web resources and services.